createdAt,value
2022-08-17T00:02:21.173Z,3.67
2022-08-17T00:05:29.453Z,3.72
2022-08-17T00:08:33.220Z,3.75
2022-08-17T00:11:36.488Z,4.03
2022-08-17T00:14:37.838Z,3.88
2022-08-17T00:17:41.991Z,3.70
2022-08-17T00:20:43.624Z,3.80
2022-08-17T00:23:49.019Z,3.67
2022-08-17T00:26:50.911Z,3.85
2022-08-17T00:29:52.381Z,3.88
2022-08-17T00:33:14.003Z,3.88
2022-08-17T00:36:16.002Z,3.63
2022-08-17T00:39:17.416Z,3.83
2022-08-17T00:42:18.820Z,4.22
2022-08-17T00:45:20.545Z,3.80
2022-08-17T00:48:30.026Z,3.42
2022-08-17T00:51:35.021Z,3.45
2022-08-17T00:54:40.960Z,3.50
2022-08-17T00:57:45.068Z,3.72
2022-08-17T01:00:46.998Z,4.05
2022-08-17T01:03:48.810Z,4.00
2022-08-17T01:06:51.079Z,4.07
2022-08-17T01:09:53.305Z,3.53
2022-08-17T01:12:54.793Z,3.60
2022-08-17T01:16:04.427Z,3.45
2022-08-17T01:19:08.938Z,3.83
2022-08-17T01:22:14.222Z,3.80
2022-08-17T01:25:15.895Z,3.72
2022-08-17T01:28:52.663Z,4.40
2022-08-17T01:31:44.341Z,3.85
2022-08-17T01:34:50.203Z,3.95
2022-08-17T01:37:52.298Z,4.20
2022-08-17T01:40:57.992Z,4.00
2022-08-17T01:44:01.450Z,3.97
2022-08-17T01:47:03.165Z,4.10
2022-08-17T01:50:09.310Z,4.20
2022-08-17T01:53:13.302Z,3.70
2022-08-17T01:56:16.311Z,3.75
2022-08-17T01:59:18.571Z,4.00
2022-08-17T02:02:30.953Z,4.00
2022-08-17T02:05:33.030Z,4.45
2022-08-17T02:08:38.690Z,4.45
2022-08-17T02:11:40.969Z,4.20
2022-08-17T02:14:42.657Z,4.53
2022-08-17T02:17:44.513Z,3.83
2022-08-17T02:20:45.809Z,3.88
2022-08-17T02:23:48.246Z,4.28
2022-08-17T02:26:49.810Z,4.15
2022-08-17T02:29:51.106Z,4.75
2022-08-17T02:32:52.933Z,4.35
2022-08-17T02:35:54.253Z,4.07
2022-08-17T02:38:55.534Z,4.60
2022-08-17T02:42:01.483Z,4.60
2022-08-17T02:45:05.113Z,4.63
2022-08-17T02:48:06.511Z,3.97
2022-08-17T02:51:07.847Z,3.97
2022-08-17T02:54:39.752Z,4.22
2022-08-17T02:57:30.567Z,3.97
2022-08-17T03:00:36.345Z,4.28
2022-08-17T03:03:38.157Z,4.65
2022-08-17T03:06:39.478Z,4.53
2022-08-17T03:09:40.795Z,4.82
2022-08-17T03:12:43.239Z,5.32
2022-08-17T03:15:45.235Z,4.95
2022-08-17T03:18:46.606Z,4.85
2022-08-17T03:21:54.953Z,4.80
2022-08-17T03:24:56.900Z,5.35
2022-08-17T03:27:58.213Z,5.38
2022-08-17T03:30:59.598Z,4.78
2022-08-17T03:34:01.075Z,5.03
2022-08-17T03:37:02.411Z,5.32
2022-08-17T03:40:05.225Z,4.95
2022-08-17T03:43:08.855Z,5.28
2022-08-17T03:46:35.342Z,5.78
2022-08-17T03:49:55.372Z,5.15
2022-08-17T03:53:15.355Z,5.25
2022-08-17T03:56:35.416Z,5.10
2022-08-17T03:59:37.120Z,4.90
2022-08-17T04:02:38.615Z,4.63
2022-08-17T04:05:40.020Z,4.85
2022-08-17T04:08:41.368Z,4.93
2022-08-17T04:11:42.642Z,4.72
2022-08-17T04:14:52.961Z,4.25
2022-08-17T04:17:55.630Z,4.32
2022-08-17T04:20:56.967Z,4.60
2022-08-17T04:24:00.438Z,4.68
2022-08-17T04:27:01.839Z,4.80
2022-08-17T04:30:04.038Z,4.40
2022-08-17T04:33:09.656Z,5.35
2022-08-17T04:36:12.282Z,4.63
2022-08-17T04:39:13.563Z,4.45
2022-08-17T04:42:17.223Z,4.05
2022-08-17T04:45:18.602Z,4.53
2022-08-17T04:48:20.751Z,4.32
2022-08-17T04:51:23.936Z,4.47
2022-08-17T04:54:25.244Z,4.53
2022-08-17T04:57:26.538Z,4.25
2022-08-17T05:00:27.917Z,3.75
2022-08-17T05:03:29.249Z,4.70
2022-08-17T05:06:30.738Z,4.45
2022-08-17T05:09:32.061Z,4.82
2022-08-17T05:12:33.409Z,4.82
2022-08-17T05:15:36.011Z,4.82
2022-08-17T05:18:38.866Z,4.63
2022-08-17T05:21:40.222Z,4.82
2022-08-17T05:24:43.455Z,4.15
2022-08-17T05:27:52.796Z,4.57
2022-08-17T05:30:56.004Z,5.35
2022-08-17T05:33:57.555Z,5.15
2022-08-17T05:36:59.613Z,5.18
2022-08-17T05:40:00.990Z,4.82
2022-08-17T05:43:05.227Z,4.70
2022-08-17T05:46:06.597Z,5.00
2022-08-17T05:49:08.306Z,5.00
2022-08-17T05:52:14.251Z,5.05
2022-08-17T05:55:29.445Z,5.10
2022-08-17T05:58:33.775Z,4.80
2022-08-17T06:01:40.720Z,5.25
2022-08-17T06:04:42.051Z,4.70
2022-08-17T06:07:43.370Z,4.93
2022-08-17T06:10:59.278Z,5.50
2022-08-17T06:14:23.466Z,5.20
2022-08-17T06:17:25.146Z,5.15
2022-08-17T06:20:28.773Z,5.28
2022-08-17T06:23:39.023Z,5.45
2022-08-17T06:26:43.414Z,4.97
2022-08-17T06:29:50.625Z,5.00
2022-08-17T06:32:52.762Z,4.90
2022-08-17T06:36:09.565Z,5.35
2022-08-17T06:39:37.568Z,5.72
2022-08-17T06:43:05.381Z,5.70
2022-08-17T06:46:12.975Z,4.97
2022-08-17T06:49:18.210Z,5.13
2022-08-17T06:52:45.696Z,5.20
2022-08-17T06:55:46.512Z,4.60
2022-08-17T06:58:49.504Z,5.05
2022-08-17T07:01:52.091Z,5.25
2022-08-17T07:04:53.857Z,5.25
2022-08-17T07:08:11.599Z,5.43
2022-08-17T07:11:21.571Z,5.18
2022-08-17T07:14:23.576Z,4.53
2022-08-17T07:17:46.542Z,4.75
2022-08-17T07:20:49.997Z,4.50
2022-08-17T07:23:58.783Z,4.90
2022-08-17T07:27:04.732Z,5.32
2022-08-17T07:30:10.936Z,5.15
2022-08-17T07:33:14.067Z,4.55
2022-08-17T07:36:27.833Z,4.45
2022-08-17T07:39:31.286Z,4.50
2022-08-17T07:42:34.357Z,4.60
2022-08-17T07:45:55.485Z,4.20
2022-08-17T07:49:12.542Z,3.70
2022-08-17T07:55:40.452Z,4.28
2022-08-17T07:58:42.198Z,3.63
2022-08-17T08:02:00.588Z,3.75
2022-08-17T08:05:06.759Z,3.85
2022-08-17T08:08:27.072Z,3.65
2022-08-17T08:11:33.774Z,3.83
2022-08-17T08:14:38.260Z,3.80
2022-08-17T08:17:48.392Z,3.80
2022-08-17T08:21:01.851Z,4.03
2022-08-17T08:24:09.684Z,3.88
2022-08-17T08:27:27.051Z,4.18
2022-08-17T08:30:33.035Z,3.90
2022-08-17T08:33:34.508Z,4.13
2022-08-17T08:37:14.670Z,4.07
2022-08-17T08:40:19.678Z,3.58
2022-08-17T08:43:52.997Z,3.83
2022-08-17T08:47:14.264Z,4.18
2022-08-17T08:50:36.954Z,3.67
2022-08-17T08:54:01.407Z,3.97
2022-08-17T08:57:26.866Z,4.00
2022-08-17T09:00:36.044Z,3.90
2022-08-17T09:03:52.732Z,3.92
2022-08-17T09:07:04.700Z,4.03
2022-08-17T09:10:25.432Z,3.78
2022-08-17T09:13:30.804Z,3.80
2022-08-17T09:16:33.106Z,4.18
2022-08-17T09:19:46.172Z,3.80
2022-08-17T09:22:50.054Z,3.60
2022-08-17T09:25:58.233Z,3.85
2022-08-17T09:29:05.625Z,4.05
2022-08-17T09:32:17.475Z,3.75
2022-08-17T09:35:25.049Z,4.07
2022-08-17T09:38:46.291Z,3.85
2022-08-17T09:41:52.763Z,3.50
2022-08-17T09:45:12.575Z,3.92
2022-08-17T09:48:22.847Z,3.22
2022-08-17T09:51:34.800Z,3.67
2022-08-17T09:54:39.527Z,3.47
2022-08-17T09:58:00.258Z,3.92
2022-08-17T10:01:20.368Z,3.50
2022-08-17T10:04:42.873Z,3.85
2022-08-17T10:07:47.102Z,3.70
2022-08-17T10:11:07.306Z,3.88
2022-08-17T10:14:36.848Z,3.63
2022-08-17T10:17:37.908Z,3.58
2022-08-17T10:20:51.468Z,4.25
2022-08-17T10:24:17.247Z,3.85
2022-08-17T10:27:19.850Z,4.40
2022-08-17T10:30:23.034Z,4.32
2022-08-17T10:33:27.934Z,4.05
2022-08-17T10:36:38.009Z,4.85
2022-08-17T10:39:52.215Z,4.40
2022-08-17T10:42:57.414Z,5.05
2022-08-17T10:46:30.585Z,4.78
2022-08-17T10:49:33.963Z,4.35
2022-08-17T10:52:41.861Z,4.80
2022-08-17T10:56:05.598Z,4.53
2022-08-17T10:59:07.352Z,4.80
2022-08-17T11:02:12.188Z,3.97
2022-08-17T11:05:18.964Z,4.07
2022-08-17T11:08:38.733Z,4.80
2022-08-17T11:11:49.874Z,4.47
2022-08-17T11:15:00.399Z,4.10
2022-08-17T11:18:22.181Z,4.03
2022-08-17T11:21:26.345Z,4.00
2022-08-17T11:24:47.890Z,3.47
2022-08-17T11:27:53.519Z,3.90
2022-08-17T11:30:56.199Z,3.97
2022-08-17T11:34:06.503Z,3.72
2022-08-17T11:37:28.172Z,3.95
2022-08-17T11:40:38.851Z,4.03
2022-08-17T11:43:59.127Z,3.80
2022-08-17T11:47:34.307Z,3.40
2022-08-17T11:51:06.643Z,3.88
2022-08-17T11:54:31.664Z,3.40
2022-08-17T11:57:45.904Z,3.47
2022-08-17T12:03:55.967Z,3.38
2022-08-17T12:07:00.798Z,3.75
2022-08-17T12:10:02.233Z,3.08
2022-08-17T12:13:14.571Z,2.63
2022-08-17T12:16:17.386Z,2.97
2022-08-17T12:19:20.953Z,2.67
2022-08-17T12:22:25.348Z,3.00
2022-08-17T12:25:32.773Z,3.13
2022-08-17T12:28:35.633Z,3.35
2022-08-17T12:31:47.103Z,3.05
2022-08-17T12:34:49.984Z,3.17
2022-08-17T12:37:51.588Z,3.10
2022-08-17T12:40:58.101Z,3.08
2022-08-17T12:44:12.206Z,3.25
2022-08-17T12:47:22.558Z,3.00
2022-08-17T12:50:29.221Z,3.00
2022-08-17T12:53:32.449Z,3.10
2022-08-17T12:56:33.968Z,3.45
2022-08-17T12:59:39.645Z,3.42
2022-08-17T13:02:46.987Z,3.70
2022-08-17T13:06:00.663Z,3.28
2022-08-17T13:09:09.608Z,3.33
2022-08-17T13:12:11.170Z,3.45
2022-08-17T13:15:24.287Z,3.47
2022-08-17T13:18:46.058Z,3.63
2022-08-17T13:21:51.376Z,3.72
2022-08-17T13:24:54.284Z,3.25
2022-08-17T13:27:56.046Z,3.60
2022-08-17T13:31:28.439Z,3.63
2022-08-17T13:34:29.764Z,3.45
2022-08-17T13:37:33.301Z,3.50
2022-08-17T13:40:53.170Z,3.15
2022-08-17T13:43:54.650Z,3.00
2022-08-17T13:46:57.160Z,3.28
2022-08-17T13:49:58.708Z,3.13
2022-08-17T13:53:00.190Z,3.33
2022-08-17T13:56:01.459Z,2.72
2022-08-17T13:59:07.965Z,3.08
2022-08-17T14:02:09.948Z,2.80
2022-08-17T14:05:11.318Z,2.80
2022-08-17T14:08:14.103Z,2.85
2022-08-17T14:11:16.913Z,2.90
2022-08-17T14:14:19.664Z,2.72
2022-08-17T14:20:24.648Z,2.72
2022-08-17T14:23:26.043Z,2.58
2022-08-17T14:26:27.546Z,2.60
2022-08-17T14:29:29.827Z,3.15
2022-08-17T14:32:32.915Z,2.83
2022-08-17T14:35:34.869Z,3.38
2022-08-17T14:38:37.262Z,3.25
2022-08-17T14:41:39.022Z,2.90
2022-08-17T14:44:40.468Z,3.42
2022-08-17T14:47:41.792Z,2.50
2022-08-17T14:50:43.371Z,2.60
2022-08-17T14:53:45.784Z,2.60
2022-08-17T14:56:47.097Z,2.60
2022-08-17T14:59:56.612Z,2.70
2022-08-17T15:02:59.119Z,2.78
2022-08-17T15:06:00.463Z,2.72
2022-08-17T15:09:02.283Z,2.80
2022-08-17T15:12:03.900Z,2.65
2022-08-17T15:15:06.254Z,2.88
2022-08-17T15:18:08.301Z,2.47
2022-08-17T15:21:10.680Z,2.83
2022-08-17T15:24:11.990Z,2.33
2022-08-17T15:27:13.277Z,2.40
2022-08-17T15:30:15.525Z,2.58
2022-08-17T15:33:17.970Z,2.95
2022-08-17T15:36:19.608Z,2.97
2022-08-17T15:39:22.043Z,2.90
2022-08-17T15:42:23.586Z,3.08
2022-08-17T15:45:26.933Z,2.65
2022-08-17T15:48:41.196Z,2.75
2022-08-17T15:51:42.526Z,2.58
2022-08-17T15:54:48.815Z,2.63
2022-08-17T15:57:50.560Z,3.03
2022-08-17T16:01:15.154Z,2.58
2022-08-17T16:04:30.401Z,3.20
2022-08-17T16:07:32.703Z,3.00
2022-08-17T16:10:36.191Z,2.83
2022-08-17T16:13:38.742Z,2.80
2022-08-17T16:16:41.308Z,3.00
2022-08-17T16:19:42.733Z,2.97
2022-08-17T16:22:45.413Z,2.80
2022-08-17T16:25:53.605Z,2.88
2022-08-17T16:28:56.105Z,2.90
2022-08-17T16:31:57.514Z,3.15
2022-08-17T16:35:07.271Z,3.25
2022-08-17T16:38:09.509Z,3.35
2022-08-17T16:41:10.865Z,3.80
2022-08-17T16:44:15.439Z,3.13
2022-08-17T16:47:19.243Z,3.13
2022-08-17T16:50:22.349Z,3.05
2022-08-17T16:53:23.748Z,2.97
2022-08-17T16:56:25.364Z,3.17
2022-08-17T16:59:30.369Z,2.72
2022-08-17T17:02:36.289Z,3.03
2022-08-17T17:05:55.175Z,2.72
2022-08-17T17:09:00.307Z,2.80
2022-08-17T17:12:03.425Z,2.92
2022-08-17T17:15:05.981Z,2.88
2022-08-17T17:18:11.362Z,3.15
2022-08-17T17:21:13.931Z,2.55
2022-08-17T17:24:18.462Z,3.25
2022-08-17T17:27:29.411Z,2.90
2022-08-17T17:30:49.300Z,2.67
2022-08-17T17:33:56.256Z,2.83
2022-08-17T17:36:58.690Z,2.83
2022-08-17T17:40:02.521Z,3.00
2022-08-17T17:43:34.865Z,2.95
2022-08-17T17:46:33.307Z,2.72
2022-08-17T17:49:37.017Z,2.92
2022-08-17T17:52:38.298Z,3.20
2022-08-17T17:55:44.451Z,2.88
2022-08-17T17:58:55.627Z,3.60
2022-08-17T18:02:35.818Z,3.03
2022-08-17T18:05:37.225Z,2.92
2022-08-17T18:08:46.121Z,3.10
2022-08-17T18:11:55.001Z,2.97
2022-08-17T18:15:09.975Z,2.72
2022-08-17T18:18:14.420Z,3.00
2022-08-17T18:21:23.942Z,2.65
2022-08-17T18:24:32.619Z,3.03
2022-08-17T18:27:36.851Z,3.80
2022-08-17T18:30:38.286Z,3.83
2022-08-17T18:33:42.230Z,3.65
2022-08-17T18:36:43.561Z,3.47
2022-08-17T18:39:44.910Z,3.63
2022-08-17T18:43:04.978Z,3.85
2022-08-17T18:46:17.356Z,3.70
2022-08-17T18:49:30.400Z,3.72
2022-08-17T18:52:32.706Z,3.78
2022-08-17T18:55:34.136Z,3.35
2022-08-17T18:58:39.502Z,3.47
2022-08-17T19:01:46.977Z,3.40
2022-08-17T19:05:33.588Z,3.45
2022-08-17T19:08:35.894Z,4.10
2022-08-17T19:11:37.478Z,3.95
2022-08-17T19:14:39.138Z,3.50
2022-08-17T19:17:46.416Z,3.65
2022-08-17T19:20:53.575Z,3.50
2022-08-17T19:24:07.836Z,3.83
2022-08-17T19:27:15.590Z,3.63
2022-08-17T19:30:20.243Z,3.65
2022-08-17T19:33:21.732Z,3.92
2022-08-17T19:36:35.813Z,3.83
2022-08-17T19:39:46.362Z,3.58
2022-08-17T19:42:55.235Z,3.42
2022-08-17T19:46:01.324Z,3.67
2022-08-17T19:49:18.547Z,3.88
2022-08-17T19:52:41.635Z,3.40
2022-08-17T19:56:00.101Z,3.70
2022-08-17T19:59:08.103Z,3.83
2022-08-17T20:02:19.673Z,3.47
2022-08-17T20:05:24.100Z,3.35
2022-08-17T20:08:34.389Z,3.75
2022-08-17T20:11:46.535Z,3.42
2022-08-17T20:14:53.740Z,3.55
2022-08-17T20:17:58.954Z,4.15
2022-08-17T20:21:04.956Z,3.63
2022-08-17T20:24:20.164Z,3.42
2022-08-17T20:27:29.493Z,4.03
2022-08-17T20:30:37.952Z,3.78
2022-08-17T20:33:39.249Z,3.53
2022-08-17T20:36:56.979Z,3.53
2022-08-17T20:39:58.316Z,4.57
2022-08-17T20:43:19.668Z,3.75
2022-08-17T20:46:24.012Z,3.85
2022-08-17T20:49:47.170Z,3.58
2022-08-17T20:52:48.524Z,4.10
2022-08-17T20:55:52.268Z,4.10
2022-08-17T20:58:54.380Z,4.25
2022-08-17T21:02:18.814Z,3.80
2022-08-17T21:05:34.351Z,3.80
2022-08-17T21:08:57.814Z,4.13
2022-08-17T21:12:04.062Z,3.65
2022-08-17T21:15:10.485Z,3.97
2022-08-17T21:18:11.937Z,3.90
2022-08-17T21:21:25.874Z,4.07
2022-08-17T21:24:30.230Z,3.78
2022-08-17T21:27:46.223Z,3.60
2022-08-17T21:30:55.425Z,3.70
2022-08-17T21:34:14.942Z,4.20
2022-08-17T21:37:23.287Z,3.53
2022-08-17T21:40:26.983Z,3.70
2022-08-17T21:43:32.278Z,4.20
2022-08-17T21:46:37.520Z,4.18
2022-08-17T21:49:39.611Z,3.92
2022-08-17T21:52:40.982Z,3.83
2022-08-17T21:55:42.342Z,4.03
2022-08-17T21:58:48.286Z,4.43
2022-08-17T22:01:52.762Z,3.80
2022-08-17T22:04:56.959Z,4.10
2022-08-17T22:08:03.109Z,4.20
2022-08-17T22:11:04.471Z,4.05
2022-08-17T22:14:16.032Z,3.53
2022-08-17T22:17:23.470Z,3.75
2022-08-17T22:20:24.847Z,3.72
2022-08-17T22:23:46.964Z,3.35
2022-08-17T22:27:07.413Z,3.85
2022-08-17T22:30:29.134Z,3.50
2022-08-17T22:33:33.527Z,3.58
2022-08-17T22:36:36.197Z,3.33
2022-08-17T22:39:40.255Z,3.63
2022-08-17T22:42:48.634Z,3.63
2022-08-17T22:45:53.204Z,3.60
2022-08-17T22:48:55.849Z,3.85
2022-08-17T22:52:01.630Z,3.20
2022-08-17T22:55:32.821Z,4.03
2022-08-17T22:58:59.223Z,3.72
2022-08-17T23:02:12.430Z,3.78
2022-08-17T23:05:13.755Z,3.83
2022-08-17T23:08:20.935Z,3.70
2022-08-17T23:11:36.593Z,3.78
2022-08-17T23:14:49.354Z,3.60
2022-08-17T23:17:50.737Z,4.07
2022-08-17T23:20:52.221Z,3.92
2022-08-17T23:23:53.534Z,3.38
2022-08-17T23:26:57.151Z,3.63
2022-08-17T23:29:58.482Z,3.83
2022-08-17T23:33:01.137Z,3.22
2022-08-17T23:36:02.512Z,3.75
2022-08-17T23:39:04.594Z,3.67
2022-08-17T23:42:09.423Z,3.72
2022-08-17T23:45:10.765Z,4.18
2022-08-17T23:48:12.063Z,4.43
2022-08-17T23:51:18.904Z,3.97
2022-08-17T23:54:20.217Z,4.15
2022-08-17T23:57:33.649Z,4.00
